Time;durP1;ratioP1;P1;durP2;ratioP2;P2;SDS_P1;SDS_P2;PMS_P1;PMS_P2;Temp;Humidity;BMP_temperature;BMP_pressure;BME280_temperature;BME280_humidity;BME280_pressure;Samples;Min_cycle;Max_cycle;Signal;HPM_P1;HPM_P2
2023/07/04 00:00:14;;;;;;;2.38;1.63;;;;;;;;;;4124404;28;20046;-58
2023/07/04 00:02:34;;;;;;;1.45;1.45;;;;;;;;;;4126555;28;20081;-58
2023/07/04 00:04:54;;;;;;;1.40;1.40;;;;;;;;;;4127677;28;20073;-58
2023/07/04 00:07:15;;;;;;;3.33;1.30;;;;;;;;;;4129138;28;20269;-58
2023/07/04 00:09:36;;;;;;;1.20;1.10;;;;;;;;;;4131270;28;20111;-58
2023/07/04 00:11:58;;;;;;;2.10;1.98;;;;;;;;;;4128348;28;20097;-58
2023/07/04 00:14:18;;;;;;;1.88;1.77;;;;;;;;;;4127219;28;20108;-58
2023/07/04 00:16:38;;;;;;;1.92;1.83;;;;;;;;;;4131749;28;20383;-58
2023/07/04 00:18:58;;;;;;;1.85;1.75;;;;;;;;;;4127566;28;20054;-58
2023/07/04 00:21:19;;;;;;;6.45;2.45;;;;;;;;;;4125076;28;20061;-58
2023/07/04 00:23:45;;;;;;;6.10;2.92;;;;;;;;;;4127413;28;20368;-58
2023/07/04 00:26:07;;;;;;;2.38;2.17;;;;;;;;;;4126525;28;20054;-58
2023/07/04 00:28:27;;;;;;;6.57;3.20;;;;;;;;;;4132121;28;20408;-58
2023/07/04 00:30:51;;;;;;;2.72;2.53;;;;;;;;;;4131634;28;20049;-58
2023/07/04 00:33:13;;;;;;;2.33;2.22;;;;;;;;;;4128830;28;20074;-58
2023/07/04 00:35:33;;;;;;;1.80;1.70;;;;;;;;;;4126956;28;20101;-58
2023/07/04 00:37:55;;;;;;;2.97;2.83;;;;;;;;;;4125278;28;20101;-58
2023/07/04 00:40:16;;;;;;;3.25;2.30;;;;;;;;;;4124508;28;20376;-58
2023/07/04 00:42:36;;;;;;;2.80;2.08;;;;;;;;;;4133999;28;20046;-58
2023/07/04 00:44:58;;;;;;;3.05;2.95;;;;;;;;;;4130707;28;20437;-58
2023/07/04 00:47:32;;;;;;;3.50;3.38;;;;;;;;;;4132400;28;20049;-58
2023/07/04 00:49:57;;;;;;;2.75;2.28;;;;;;;;;;4128436;28;20081;-58
2023/07/04 00:52:23;;;;;;;2.92;2.67;;;;;;;;;;4126152;28;20226;-58
2023/07/04 00:54:52;;;;;;;5.43;2.75;;;;;;;;;;4128950;28;20085;-58
2023/07/04 00:57:14;;;;;;;2.55;2.35;;;;;;;;;;4137091;28;20049;-58
2023/07/04 00:59:37;;;;;;;5.75;2.90;;;;;;;;;;4133622;28;20053;-58
2023/07/04 01:01:58;;;;;;;2.90;2.78;;;;;;;;;;4150507;22;20082;-75
2023/07/04 01:04:18;;;;;;;4.82;4.45;;;;;;;;;;4163852;28;20064;-75
2023/07/04 01:06:47;;;;;;;2.13;2.03;;;;;;;;;;4182359;28;20048;-74
2023/07/04 01:09:09;;;;;;;2.83;2.67;;;;;;;;;;4170776;28;20044;-74
2023/07/04 01:11:32;;;;;;;3.08;2.90;;;;;;;;;;4186278;28;20045;-74
2023/07/04 01:13:53;;;;;;;4.43;2.83;;;;;;;;;;4185035;28;20102;-74
2023/07/04 01:16:14;;;;;;;2.75;2.65;;;;;;;;;;4183900;28;20358;-74
2023/07/04 01:18:35;;;;;;;3.00;2.78;;;;;;;;;;4182360;28;20048;-75
2023/07/04 01:20:56;;;;;;;2.70;2.60;;;;;;;;;;4167382;28;20044;-75
2023/07/04 01:23:39;;;;;;;3.20;3.00;;;;;;;;;;4186451;28;20401;-74
2023/07/04 01:26:00;;;;;;;2.45;2.35;;;;;;;;;;4174778;28;20151;-74
2023/07/04 01:28:21;;;;;;;2.70;2.33;;;;;;;;;;4184542;28;20048;-74
2023/07/04 01:30:42;;;;;;;5.53;3.75;;;;;;;;;;4184497;28;20104;-74
2023/07/04 01:33:02;;;;;;;3.22;2.97;;;;;;;;;;4181950;28;20277;-75
2023/07/04 01:35:22;;;;;;;4.78;3.30;;;;;;;;;;4181783;28;20091;-74
2023/07/04 01:37:43;;;;;;;2.97;2.75;;;;;;;;;;4181730;28;20059;-74
2023/07/04 01:40:07;;;;;;;3.20;2.25;;;;;;;;;;4196500;28;20056;-74
2023/07/04 01:42:36;;;;;;;2.38;2.28;;;;;;;;;;4202079;28;20238;-74
2023/07/04 01:44:56;;;;;;;3.78;3.42;;;;;;;;;;4200197;28;20441;-74
2023/07/04 01:47:18;;;;;;;3.95;3.65;;;;;;;;;;4201185;28;20086;-74
2023/07/04 01:49:38;;;;;;;4.50;2.60;;;;;;;;;;4198638;28;20051;-74
2023/07/04 01:51:58;;;;;;;2.47;2.38;;;;;;;;;;4202317;28;20090;-74
2023/07/04 01:54:19;;;;;;;3.70;2.45;;;;;;;;;;4199732;28;20052;-74
2023/07/04 01:56:39;;;;;;;2.40;2.05;;;;;;;;;;4197571;28;20090;-75
2023/07/04 01:59:00;;;;;;;2.42;2.33;;;;;;;;;;4197032;28;20064;-74
2023/07/04 02:01:20;;;;;;;2.22;2.03;;;;;;;;;;4199097;28;20064;-75
2023/07/04 02:03:41;;;;;;;2.17;2.00;;;;;;;;;;4203028;28;20087;-74
2023/07/04 02:06:01;;;;;;;6.25;3.33;;;;;;;;;;4198014;28;20093;-74
2023/07/04 02:08:21;;;;;;;2.80;2.70;;;;;;;;;;4198897;28;20396;-74
2023/07/04 02:10:42;;;;;;;2.63;2.47;;;;;;;;;;4198801;28;20162;-75
2023/07/04 02:13:02;;;;;;;3.65;3.38;;;;;;;;;;4196679;28;20084;-74
2023/07/04 02:15:24;;;;;;;5.32;3.13;;;;;;;;;;4197313;28;20102;-74
2023/07/04 02:17:44;;;;;;;3.72;3.60;;;;;;;;;;4200496;28;20086;-74
2023/07/04 02:20:05;;;;;;;3.90;3.30;;;;;;;;;;4200006;28;20047;-76
2023/07/04 02:22:26;;;;;;;3.72;3.47;;;;;;;;;;4200125;28;20302;-76
2023/07/04 02:24:46;;;;;;;3.70;3.60;;;;;;;;;;4200287;28;20063;-76
2023/07/04 02:27:07;;;;;;;4.65;4.35;;;;;;;;;;4197883;28;20051;-76
2023/07/04 02:29:27;;;;;;;5.00;4.03;;;;;;;;;;4203402;28;20087;-76
2023/07/04 02:31:47;;;;;;;4.63;3.47;;;;;;;;;;4201405;28;20114;-79
2023/07/04 02:34:08;;;;;;;4.10;3.90;;;;;;;;;;4201267;28;20040;-79
2023/07/04 02:36:28;;;;;;;6.20;4.15;;;;;;;;;;4199508;28;20109;-79
2023/07/04 02:38:48;;;;;;;4.78;3.63;;;;;;;;;;4201667;28;20375;-79
2023/07/04 02:41:09;;;;;;;3.50;3.13;;;;;;;;;;4198345;28;20067;-79
2023/07/04 02:43:30;;;;;;;3.50;3.30;;;;;;;;;;4197570;28;20096;-79
2023/07/04 02:45:51;;;;;;;4.53;3.60;;;;;;;;;;4196737;28;20051;-79
2023/07/04 02:48:11;;;;;;;3.10;2.90;;;;;;;;;;4198326;28;20055;-79
2023/07/04 02:50:32;;;;;;;3.60;3.50;;;;;;;;;;4201483;28;20048;-79
2023/07/04 02:52:52;;;;;;;4.10;2.85;;;;;;;;;;4203820;28;20079;-79
2023/07/04 02:55:13;;;;;;;3.05;2.92;;;;;;;;;;4202267;28;20074;-79
2023/07/04 02:57:34;;;;;;;3.90;3.70;;;;;;;;;;4202509;28;20123;-79
2023/07/04 02:59:55;;;;;;;3.97;3.78;;;;;;;;;;4186902;28;20053;-79
2023/07/04 03:02:15;;;;;;;3.42;3.10;;;;;;;;;;4202561;28;20052;-79
2023/07/04 03:04:36;;;;;;;3.50;2.97;;;;;;;;;;4201180;28;20039;-79
2023/07/04 03:06:57;;;;;;;5.38;2.95;;;;;;;;;;4199304;28;20145;-79
2023/07/04 03:09:17;;;;;;;3.78;3.50;;;;;;;;;;4202355;28;20072;-79
2023/07/04 03:11:38;;;;;;;7.05;2.85;;;;;;;;;;4187873;28;20051;-79
2023/07/04 03:13:58;;;;;;;4.30;2.95;;;;;;;;;;4202516;28;20056;-79
2023/07/04 03:16:19;;;;;;;3.30;3.10;;;;;;;;;;4186286;28;20051;-79
2023/07/04 03:18:40;;;;;;;5.30;3.33;;;;;;;;;;4200344;28;20361;-79
2023/07/04 03:21:00;;;;;;;2.95;2.83;;;;;;;;;;4200333;28;20068;-79
2023/07/04 03:23:21;;;;;;;2.67;2.47;;;;;;;;;;4200844;28;20086;-79
2023/07/04 03:25:42;;;;;;;2.80;2.60;;;;;;;;;;4202189;28;20066;-79
2023/07/04 03:28:02;;;;;;;2.67;2.58;;;;;;;;;;4203776;28;20111;-79
2023/07/04 03:30:23;;;;;;;3.90;2.40;;;;;;;;;;4201241;28;20048;-79
2023/07/04 03:32:43;;;;;;;3.20;2.83;;;;;;;;;;4197887;28;20048;-79
2023/07/04 03:35:04;;;;;;;3.85;3.55;;;;;;;;;;4196923;28;20252;-79
2023/07/04 03:37:24;;;;;;;3.60;3.28;;;;;;;;;;4199729;28;20052;-79
2023/07/04 03:39:45;;;;;;;4.45;4.05;;;;;;;;;;4197614;28;20067;-79
2023/07/04 03:42:06;;;;;;;4.07;3.70;;;;;;;;;;4199735;28;20063;-77
2023/07/04 03:44:26;;;;;;;3.00;2.90;;;;;;;;;;4201900;28;20047;-77
2023/07/04 03:46:46;;;;;;;2.78;2.53;;;;;;;;;;4201931;28;20112;-76
2023/07/04 03:49:07;;;;;;;4.10;3.30;;;;;;;;;;4200902;28;20071;-77
2023/07/04 03:51:27;;;;;;;4.10;3.70;;;;;;;;;;4197569;28;20054;-76
2023/07/04 03:53:48;;;;;;;4.32;3.97;;;;;;;;;;4200655;28;20259;-76
2023/07/04 03:56:08;;;;;;;3.55;3.35;;;;;;;;;;4198322;28;20047;-76
2023/07/04 03:58:29;;;;;;;3.92;3.63;;;;;;;;;;4200651;28;20074;-76
2023/07/04 04:00:50;;;;;;;5.88;3.38;;;;;;;;;;4202873;28;20150;-76
2023/07/04 04:03:11;;;;;;;2.88;2.78;;;;;;;;;;4201475;28;20052;-76
2023/07/04 04:05:31;;;;;;;3.53;3.33;;;;;;;;;;4185520;28;20068;-76
2023/07/04 04:07:52;;;;;;;4.15;3.50;;;;;;;;;;4186045;28;20048;-76
2023/07/04 04:10:12;;;;;;;9.93;3.72;;;;;;;;;;4199141;28;20056;-76
2023/07/04 04:12:35;;;;;;;3.58;3.47;;;;;;;;;;4198924;28;20366;-77
2023/07/04 04:14:55;;;;;;;3.92;3.67;;;;;;;;;;4203674;28;20235;-76
2023/07/04 04:17:16;;;;;;;3.83;3.53;;;;;;;;;;4203338;28;20047;-76
2023/07/04 04:19:37;;;;;;;4.13;3.92;;;;;;;;;;4203120;28;20083;-76
2023/07/04 04:21:57;;;;;;;3.28;3.08;;;;;;;;;;4200610;28;20086;-76
2023/07/04 04:24:18;;;;;;;3.15;2.95;;;;;;;;;;4198463;28;20098;-76
2023/07/04 04:26:40;;;;;;;3.92;3.72;;;;;;;;;;4196753;28;20064;-76
2023/07/04 04:29:00;;;;;;;3.42;3.13;;;;;;;;;;4198470;28;20052;-76
2023/07/04 04:31:20;;;;;;;3.53;3.22;;;;;;;;;;4198865;28;20054;-76
2023/07/04 04:33:42;;;;;;;4.03;3.45;;;;;;;;;;4187389;28;20390;-76
2023/07/04 04:36:03;;;;;;;3.88;3.67;;;;;;;;;;4184559;28;20080;-76
2023/07/04 04:38:23;;;;;;;3.95;3.42;;;;;;;;;;4198837;28;20322;-76
2023/07/04 04:40:44;;;;;;;3.60;3.40;;;;;;;;;;4183099;28;20064;-76
2023/07/04 04:43:05;;;;;;;3.67;3.47;;;;;;;;;;4198960;28;20087;-76
2023/07/04 04:45:25;;;;;;;2.35;2.17;;;;;;;;;;4198439;28;20079;-76
2023/07/04 04:47:52;;;;;;;3.75;3.33;;;;;;;;;;4184402;28;20064;-76
2023/07/04 04:50:13;;;;;;;4.70;3.05;;;;;;;;;;4199621;28;20082;-76
2023/07/04 04:52:33;;;;;;;3.28;3.05;;;;;;;;;;4185280;28;20048;-77
2023/07/04 04:54:53;;;;;;;2.35;2.22;;;;;;;;;;4202236;28;20055;-76
2023/07/04 04:57:17;;;;;;;3.85;3.55;;;;;;;;;;4184412;28;20049;-76
2023/07/04 04:59:38;;;;;;;3.53;3.25;;;;;;;;;;4198851;28;20155;-76
2023/07/04 05:01:59;;;;;;;3.58;3.30;;;;;;;;;;4199834;28;20369;-76
2023/07/04 05:04:19;;;;;;;4.13;3.78;;;;;;;;;;4197398;28;20362;-77
2023/07/04 05:06:41;;;;;;;3.05;2.95;;;;;;;;;;4203087;28;20399;-76
2023/07/04 05:09:02;;;;;;;3.72;2.85;;;;;;;;;;4201053;28;20048;-76
2023/07/04 05:11:23;;;;;;;3.40;3.20;;;;;;;;;;4200395;28;20047;-77
2023/07/04 05:13:47;;;;;;;3.80;3.05;;;;;;;;;;4198766;28;20060;-76
2023/07/04 05:16:12;;;;;;;3.15;3.05;;;;;;;;;;4197615;28;20063;-88
2023/07/04 05:18:35;;;;;;;4.07;3.72;;;;;;;;;;4184031;28;20048;-87
2023/07/04 05:21:04;;;;;;;3.80;2.90;;;;;;;;;;4180682;28;20045;-87
2023/07/04 05:23:26;;;;;;;5.55;3.42;;;;;;;;;;4200965;28;20055;-87
2023/07/04 05:25:46;;;;;;;4.05;3.63;;;;;;;;;;4197678;28;20040;-87
2023/07/04 05:28:08;;;;;;;6.63;3.55;;;;;;;;;;4200074;28;20062;-87
2023/07/04 05:30:28;;;;;;;3.67;2.80;;;;;;;;;;4178358;28;20103;-87
2023/07/04 05:32:49;;;;;;;2.40;2.30;;;;;;;;;;4181822;28;20052;-87
2023/07/04 05:35:10;;;;;;;3.53;3.23;;;;;;;;;;4195953;28;20048;-87
2023/07/04 05:37:31;;;;;;;3.72;3.10;;;;;;;;;;4201754;28;20052;-87
2023/07/04 05:39:51;;;;;;;2.50;2.25;;;;;;;;;;4195352;28;20087;-87
2023/07/04 05:42:12;;;;;;;2.85;2.65;;;;;;;;;;4196351;28;20083;-87
2023/07/04 05:44:33;;;;;;;2.70;2.60;;;;;;;;;;4195282;28;20056;-87
2023/07/04 05:46:54;;;;;;;3.42;3.20;;;;;;;;;;4195967;28;20220;-87
2023/07/04 05:49:15;;;;;;;4.45;2.65;;;;;;;;;;4201419;28;20090;-87
2023/07/04 05:51:36;;;;;;;1.70;1.60;;;;;;;;;;4203231;28;20174;-87
2023/07/04 05:53:58;;;;;;;2.30;2.20;;;;;;;;;;4196108;28;20090;-87
2023/07/04 05:56:24;;;;;;;3.45;3.00;;;;;;;;;;4183816;28;20094;-87
2023/07/04 05:58:50;;;;;;;2.50;2.30;;;;;;;;;;4199766;28;20091;-87
2023/07/04 06:01:13;;;;;;;1.83;1.73;;;;;;;;;;4199085;28;20104;-87
2023/07/04 06:03:35;;;;;;;;;;;;;;;;;;4198178;28;20083;-85
2023/07/04 06:05:57;;;;;;;1.23;1.23;;;;;;;;;;4202800;28;19989;-85
2023/07/04 06:08:42;;;;;;;2.33;2.22;;;;;;;;;;4200569;28;20056;-85
2023/07/04 06:11:03;;;;;;;2.10;1.90;;;;;;;;;;4136481;28;20117;-85
2023/07/04 06:13:24;;;;;;;5.95;2.20;;;;;;;;;;4146525;28;20114;-85
2023/07/04 06:15:45;;;;;;;1.20;1.10;;;;;;;;;;4144707;28;20504;-85
2023/07/04 06:18:05;;;;;;;1.88;1.60;;;;;;;;;;4134193;28;20080;-85
2023/07/04 06:20:25;;;;;;;2.28;1.85;;;;;;;;;;4135949;28;20110;-86
2023/07/04 06:22:47;;;;;;;1.85;1.40;;;;;;;;;;4147695;28;20057;-86
2023/07/04 06:25:08;;;;;;;1.92;1.40;;;;;;;;;;4143560;28;20065;-86
2023/07/04 06:27:28;;;;;;;2.38;1.50;;;;;;;;;;4152502;28;20065;-86
2023/07/04 06:29:48;;;;;;;1.30;1.30;;;;;;;;;;4140840;28;20067;-86
2023/07/04 06:32:08;;;;;;;4.28;1.60;;;;;;;;;;4137918;28;20240;-86
2023/07/04 06:34:31;;;;;;;1.48;1.38;;;;;;;;;;4147998;28;20085;-86
2023/07/04 06:36:51;;;;;;;1.60;1.50;;;;;;;;;;4139985;28;20124;-86
2023/07/04 06:39:13;;;;;;;1.92;1.27;;;;;;;;;;4132307;28;20162;-86
2023/07/04 06:41:33;;;;;;;2.05;1.40;;;;;;;;;;4139293;28;20061;-86
2023/07/04 06:43:55;;;;;;;1.52;1.42;;;;;;;;;;4134141;28;20119;-86
2023/07/04 06:46:21;;;;;;;3.20;1.30;;;;;;;;;;4149525;28;20053;-86
2023/07/04 06:48:42;;;;;;;1.27;1.10;;;;;;;;;;4196517;28;20048;-86
2023/07/04 06:51:04;;;;;;;1.73;1.00;;;;;;;;;;4202988;28;20258;-85
2023/07/04 06:53:27;;;;;;;1.10;1.10;;;;;;;;;;4187802;28;20389;-86
2023/07/04 06:55:47;;;;;;;;;;;;;;;;;;4199186;28;20044;-86
2023/07/04 06:58:08;;;;;;;2.90;1.20;;;;;;;;;;4203328;28;19923;-86
2023/07/04 07:00:28;;;;;;;2.67;1.00;;;;;;;;;;4201774;28;20099;-86
2023/07/04 07:02:50;;;;;;;1.05;1.05;;;;;;;;;;4197664;28;20071;-86
2023/07/04 07:05:11;;;;;;;1.17;1.10;;;;;;;;;;4191482;28;20048;-86
2023/07/04 07:07:33;;;;;;;2.55;1.00;;;;;;;;;;4202029;28;20055;-86
2023/07/04 07:09:53;;;;;;;1.02;0.93;;;;;;;;;;4191302;28;20044;-86
2023/07/04 07:12:14;;;;;;;2.05;1.00;;;;;;;;;;4199469;28;20116;-86
2023/07/04 07:14:34;;;;;;;0.93;0.85;;;;;;;;;;4199134;28;20047;-86
2023/07/04 07:16:58;;;;;;;0.98;0.98;;;;;;;;;;4191728;28;20040;-86
2023/07/04 07:19:19;;;;;;;1.05;0.90;;;;;;;;;;4206089;28;20106;-86
2023/07/04 07:21:40;;;;;;;1.27;1.27;;;;;;;;;;4201732;28;20127;-86
2023/07/04 07:24:01;;;;;;;1.00;0.90;;;;;;;;;;4198895;28;20112;-86
2023/07/04 07:26:23;;;;;;;0.90;0.90;;;;;;;;;;4204551;28;20043;-86
2023/07/04 07:29:07;;;;;;;0.80;0.80;;;;;;;;;;4205742;28;20044;-86
2023/07/04 07:31:27;;;;;;;3.15;0.90;;;;;;;;;;4171376;28;20176;-88
2023/07/04 07:33:55;;;;;;;1.25;1.15;;;;;;;;;;4168298;28;20080;-88
2023/07/04 07:36:15;;;;;;;0.80;0.80;;;;;;;;;;4166055;28;20053;-88
2023/07/04 07:38:36;;;;;;;1.15;0.80;;;;;;;;;;4167707;28;20244;-88
2023/07/04 07:40:56;;;;;;;0.80;0.80;;;;;;;;;;4173821;28;20052;-88
2023/07/04 07:43:17;;;;;;;0.88;0.88;;;;;;;;;;4171094;28;20056;-88
2023/07/04 07:45:40;;;;;;;1.33;0.90;;;;;;;;;;4167679;28;20118;-88
2023/07/04 07:48:00;;;;;;;0.70;0.70;;;;;;;;;;4169592;28;20387;-88
2023/07/04 07:50:20;;;;;;;2.05;0.70;;;;;;;;;;4171598;28;20088;-88
2023/07/04 07:52:42;;;;;;;0.60;0.60;;;;;;;;;;4153934;28;20057;-88
2023/07/04 07:55:02;;;;;;;0.60;0.60;;;;;;;;;;4157619;28;20099;-88
2023/07/04 07:57:22;;;;;;;0.50;0.50;;;;;;;;;;4169342;28;20080;-88
2023/07/04 07:59:42;;;;;;;0.60;0.60;;;;;;;;;;4165704;28;20272;-88
2023/07/04 08:02:03;;;;;;;0.50;0.50;;;;;;;;;;4154340;28;20153;-88
2023/07/04 08:04:25;;;;;;;0.52;0.52;;;;;;;;;;4170747;28;20280;-89
2023/07/04 08:06:46;;;;;;;0.60;0.60;;;;;;;;;;4159171;28;20129;-89
2023/07/04 08:09:09;;;;;;;0.50;0.50;;;;;;;;;;4196188;28;20291;-88
2023/07/04 08:11:29;;;;;;;0.60;0.60;;;;;;;;;;4195422;28;20048;-88
2023/07/04 08:13:52;;;;;;;0.80;0.60;;;;;;;;;;4204270;28;20044;-87
2023/07/04 08:16:16;;;;;;;0.60;0.60;;;;;;;;;;4184792;28;20055;-86
2023/07/04 08:18:37;;;;;;;0.68;0.68;;;;;;;;;;4196419;28;20048;-87
2023/07/04 08:20:58;;;;;;;0.60;0.60;;;;;;;;;;4200597;28;20063;-87
2023/07/04 08:23:22;;;;;;;1.55;0.73;;;;;;;;;;4204646;28;20366;-87
2023/07/04 08:25:42;;;;;;;0.60;0.60;;;;;;;;;;4195505;28;20079;-90
2023/07/04 08:28:05;;;;;;;4.13;1.05;;;;;;;;;;4201520;28;20063;-89
2023/07/04 08:30:25;;;;;;;1.05;0.70;;;;;;;;;;4199271;28;20343;-89
2023/07/04 08:32:46;;;;;;;0.60;0.60;;;;;;;;;;4199970;28;20083;-89
2023/07/04 08:35:07;;;;;;;0.68;0.60;;;;;;;;;;4190373;28;20086;-89
2023/07/04 08:37:27;;;;;;;0.60;0.60;;;;;;;;;;4204770;28;20378;-90
2023/07/04 08:39:49;;;;;;;0.60;0.60;;;;;;;;;;4185191;28;20044;-91
2023/07/04 08:42:09;;;;;;;;;;;;;;;;;;4205256;28;20071;-92
2023/07/04 08:44:52;;;;;;;1.35;0.60;;;;;;;;;;4197743;28;19963;-93
2023/07/04 08:47:17;;;;;;;2.05;0.60;;;;;;;;;;4186032;28;20235;-91
2023/07/04 08:49:42;;;;;;;0.50;0.50;;;;;;;;;;4197762;28;20274;-92
2023/07/04 08:52:21;;;;;;;0.60;0.60;;;;;;;;;;4185261;28;20105;-91
2023/07/04 08:54:41;;;;;;;1.75;0.60;;;;;;;;;;4186516;28;20169;-92
2023/07/04 08:57:08;;;;;;;0.55;0.55;;;;;;;;;;4198300;28;20052;-91
2023/07/04 08:59:58;;;;;;;0.57;0.57;;;;;;;;;;4196788;28;20052;-91
2023/07/04 09:02:29;;;;;;;0.73;0.50;;;;;;;;;;4154668;28;20041;-90
2023/07/04 09:04:50;;;;;;;0.60;0.60;;;;;;;;;;4157906;28;20130;-92
2023/07/04 09:07:14;;;;;;;0.52;0.52;;;;;;;;;;4154016;28;20102;-91
2023/07/04 09:09:41;;;;;;;0.60;0.60;;;;;;;;;;4158443;28;20052;-92
2023/07/04 09:12:03;;;;;;;0.68;0.65;;;;;;;;;;4158309;28;20109;-91
2023/07/04 09:14:34;;;;;;;2.47;0.60;;;;;;;;;;4157905;28;20120;-91
2023/07/04 09:16:56;;;;;;;0.90;0.70;;;;;;;;;;4160859;28;20064;-91
2023/07/04 09:19:19;;;;;;;6.05;0.60;;;;;;;;;;4155029;28;20138;-91
2023/07/04 09:21:42;;;;;;;0.60;0.60;;;;;;;;;;4152785;28;20048;-92
2023/07/04 09:24:03;;;;;;;0.68;0.68;;;;;;;;;;4159417;28;20109;-87
2023/07/04 09:26:25;;;;;;;0.70;0.60;;;;;;;;;;4155010;28;20299;-87
2023/07/04 09:28:48;;;;;;;;;;;;;;;;;;4156372;28;20113;-88
2023/07/04 09:31:12;;;;;;;0.60;0.60;;;;;;;;;;4156010;28;19932;-88
2023/07/04 09:33:35;;;;;;;1.58;0.80;;;;;;;;;;4154967;28;20053;-88
2023/07/04 09:35:58;;;;;;;1.42;0.70;;;;;;;;;;4151382;28;20045;-88
2023/07/04 09:38:21;;;;;;;0.70;0.70;;;;;;;;;;4169690;28;20079;-89
2023/07/04 09:40:41;;;;;;;0.70;0.70;;;;;;;;;;4176595;28;20359;-89
2023/07/04 09:43:03;;;;;;;0.90;0.73;;;;;;;;;;4204913;28;20150;-88
2023/07/04 09:45:24;;;;;;;0.75;0.70;;;;;;;;;;4205373;28;20101;-88
2023/07/04 09:47:45;;;;;;;1.27;0.70;;;;;;;;;;4181880;28;20053;-88
2023/07/04 09:50:16;;;;;;;1.05;0.73;;;;;;;;;;4203743;28;20094;-88
2023/07/04 09:52:38;;;;;;;1.02;0.90;;;;;;;;;;4194756;28;20366;-89
2023/07/04 09:55:17;;;;;;;0.98;0.80;;;;;;;;;;4196464;28;20056;-89
2023/07/04 09:57:37;;;;;;;0.80;0.80;;;;;;;;;;4199035;28;20455;-89
2023/07/04 10:00:16;;;;;;;0.80;0.80;;;;;;;;;;4189224;28;20374;-88
2023/07/04 10:02:37;;;;;;;1.17;0.80;;;;;;;;;;4178927;28;20076;-88
2023/07/04 10:04:58;;;;;;;1.55;0.80;;;;;;;;;;4204716;28;20051;-88
2023/07/04 10:07:20;;;;;;;1.35;0.88;;;;;;;;;;4188447;28;20100;-87
2023/07/04 10:09:50;;;;;;;0.73;0.70;;;;;;;;;;4197055;28;20247;-88
2023/07/04 10:12:12;;;;;;;1.95;0.98;;;;;;;;;;4198003;28;20043;-88
2023/07/04 10:14:35;;;;;;;0.73;0.70;;;;;;;;;;4197913;28;20370;-87
2023/07/04 10:16:55;;;;;;;2.05;0.80;;;;;;;;;;4181120;28;20047;-87
2023/07/04 10:19:19;;;;;;;1.92;0.80;;;;;;;;;;4196202;28;20072;-87
2023/07/04 10:21:40;;;;;;;0.70;0.70;;;;;;;;;;4178323;28;20112;-87
2023/07/04 10:24:03;;;;;;;1.00;0.90;;;;;;;;;;4200454;28;20235;-87
2023/07/04 10:26:23;;;;;;;1.13;0.80;;;;;;;;;;4196958;28;20285;-87
2023/07/04 10:28:46;;;;;;;1.00;0.90;;;;;;;;;;4195763;28;20051;-88
2023/07/04 10:31:14;;;;;;;2.15;0.90;;;;;;;;;;4206259;28;20084;-87
2023/07/04 10:33:38;;;;;;;0.90;0.90;;;;;;;;;;4199656;28;20043;-96
2023/07/04 10:35:58;;;;;;;3.10;0.80;;;;;;;;;;4196050;28;20105;-95
2023/07/04 10:38:32;;;;;;;1.90;0.90;;;;;;;;;;4197219;28;20407;-95
2023/07/04 10:40:53;;;;;;;1.33;0.80;;;;;;;;;;4188358;28;20397;-95
2023/07/04 10:43:26;;;;;;;1.45;1.00;;;;;;;;;;4199598;28;20044;-94
2023/07/04 10:45:47;;;;;;;1.77;0.80;;;;;;;;;;4202985;28;20044;-94
2023/07/04 10:48:20;;;;;;;0.93;0.90;;;;;;;;;;4198764;28;20075;-94
2023/07/04 10:50:47;;;;;;;2.30;1.00;;;;;;;;;;4197067;28;20090;-95
2023/07/04 10:53:12;;;;;;;2.20;0.90;;;;;;;;;;4182273;28;20048;-94
2023/07/04 10:55:39;;;;;;;3.70;0.95;;;;;;;;;;4204693;28;20043;-95
2023/07/04 10:58:07;;;;;;;0.80;0.70;;;;;;;;;;4200532;28;20052;-94
2023/07/04 11:00:34;;;;;;;1.40;0.90;;;;;;;;;;4195314;28;20047;-95
2023/07/04 11:02:56;;;;;;;1.20;1.17;;;;;;;;;;4197585;28;20048;-94
2023/07/04 11:05:16;;;;;;;;;;;;;;;;;;4205234;28;20054;-94
2023/07/04 11:07:39;;;;;;;1.08;0.90;;;;;;;;;;4207540;28;19923;-93
2023/07/04 11:10:02;;;;;;;1.58;0.88;;;;;;;;;;4189317;28;20049;-94
2023/07/04 11:12:26;;;;;;;2.70;0.90;;;;;;;;;;4199191;28;20064;-95
2023/07/04 11:14:48;;;;;;;1.13;0.88;;;;;;;;;;4204961;28;20060;-96
2023/07/04 11:17:13;;;;;;;1.30;1.02;;;;;;;;;;4205049;28;20068;-88
2023/07/04 11:20:10;;;;;;;1.77;0.90;;;;;;;;;;4189298;28;20114;-88
2023/07/04 11:22:39;;;;;;;2.00;0.80;;;;;;;;;;4207853;28;20046;-88
2023/07/04 11:25:23;;;;;;;1.30;0.80;;;;;;;;;;4187528;28;20259;-88
2023/07/04 11:28:08;;;;;;;2.33;1.33;;;;;;;;;;4177027;28;20071;-88
2023/07/04 11:30:33;;;;;;;0.75;0.75;;;;;;;;;;4192053;28;20040;-88
2023/07/04 11:36:32;;;;;;;3.13;0.90;;;;;;;;;;4200300;28;20150;-88
2023/07/04 11:38:57;;;;;;;0.80;0.80;;;;;;;;;;4189328;28;20044;-82
2023/07/04 11:41:47;;;;;;;0.80;0.80;;;;;;;;;;4193704;28;20067;-83
2023/07/04 11:44:41;;;;;;;0.90;0.73;;;;;;;;;;4153548;28;20045;-84
2023/07/04 11:47:03;;;;;;;4.35;0.80;;;;;;;;;;4123030;28;20080;-84
2023/07/04 11:49:25;;;;;;;2.15;0.90;;;;;;;;;;4156233;28;20098;-84
2023/07/04 11:51:45;;;;;;;0.93;0.73;;;;;;;;;;4157130;28;20052;-85
2023/07/04 11:54:07;;;;;;;0.70;0.70;;;;;;;;;;4153410;28;20057;-84
2023/07/04 11:56:30;;;;;;;1.67;0.80;;;;;;;;;;4153267;28;20153;-84
2023/07/04 11:59:09;;;;;;;1.65;0.80;;;;;;;;;;4156908;28;20395;-84
2023/07/04 12:01:49;;;;;;;1.73;0.70;;;;;;;;;;4156976;28;20187;-84
2023/07/04 12:04:10;;;;;;;0.75;0.70;;;;;;;;;;4157032;28;20117;-84
2023/07/04 12:06:44;;;;;;;1.45;0.70;;;;;;;;;;4155834;28;20403;-84
2023/07/04 12:09:10;;;;;;;1.02;0.77;;;;;;;;;;4152385;28;20128;-84
2023/07/04 12:11:42;;;;;;;0.88;0.70;;;;;;;;;;4156110;28;20443;-84
2023/07/04 12:14:05;;;;;;;1.00;0.95;;;;;;;;;;4156764;28;20049;-84
2023/07/04 12:16:26;;;;;;;0.70;0.70;;;;;;;;;;4151324;28;20173;-84
2023/07/04 12:18:47;;;;;;;2.10;0.73;;;;;;;;;;4156712;28;20053;-84
2023/07/04 12:21:09;;;;;;;1.98;0.70;;;;;;;;;;4184497;28;20086;-84
2023/07/04 12:23:32;;;;;;;2.35;0.70;;;;;;;;;;4198618;28;20052;-84
2023/07/04 12:25:56;;;;;;;0.77;0.77;;;;;;;;;;4201639;28;20112;-84
2023/07/04 12:28:18;;;;;;;0.70;0.70;;;;;;;;;;4205002;28;20047;-84
2023/07/04 12:30:42;;;;;;;0.70;0.70;;;;;;;;;;4200374;28;20087;-84
2023/07/04 12:33:25;;;;;;;0.93;0.70;;;;;;;;;;4201775;28;20325;-84
2023/07/04 12:35:52;;;;;;;0.63;0.63;;;;;;;;;;4199491;28;20044;-84
2023/07/04 12:38:14;;;;;;;1.85;0.70;;;;;;;;;;4200618;28;20048;-85
2023/07/04 12:40:35;;;;;;;1.25;0.70;;;;;;;;;;4202349;28;20068;-84
2023/07/04 12:43:00;;;;;;;2.25;0.70;;;;;;;;;;4205002;28;20078;-84
2023/07/04 12:45:40;;;;;;;1.65;0.70;;;;;;;;;;4199113;28;20036;-84
2023/07/04 12:48:47;;;;;;;0.95;0.80;;;;;;;;;;4198724;28;20228;-89
2023/07/04 12:51:13;;;;;;;1.55;0.70;;;;;;;;;;4143180;28;20220;-89
2023/07/04 12:54:03;;;;;;;1.83;0.70;;;;;;;;;;4156581;28;20333;-90
2023/07/04 12:56:24;;;;;;;2.97;0.70;;;;;;;;;;4132449;28;20050;-89
2023/07/04 13:01:56;;;;;;;0.65;0.65;;;;;;;;;;4156662;28;20379;-89
2023/07/04 13:04:18;;;;;;;3.28;0.80;;;;;;;;;;4156532;28;20061;-88
2023/07/04 13:06:39;;;;;;;0.70;0.70;;;;;;;;;;4150405;28;20044;-96
2023/07/04 13:08:59;;;;;;;3.03;0.70;;;;;;;;;;4140639;28;20154;-95
2023/07/04 13:11:20;;;;;;;2.08;1.33;;;;;;;;;;4141891;28;20129;-94
2023/07/04 13:14:10;;;;;;;0.60;0.60;;;;;;;;;;4155429;28;20057;-93
2023/07/04 13:16:31;;;;;;;1.65;0.80;;;;;;;;;;4117725;28;20372;-96
2023/07/04 13:19:06;;;;;;;0.70;0.70;;;;;;;;;;4093121;29;20068;-93
2023/07/04 13:21:29;;;;;;;1.77;0.65;;;;;;;;;;4114668;28;20235;-96
2023/07/04 13:23:50;;;;;;;0.70;0.70;;;;;;;;;;4114937;28;20352;-96
2023/07/04 13:26:21;;;;;;;0.60;0.60;;;;;;;;;;4100403;29;20128;-96
2023/07/04 13:28:46;;;;;;;1.42;0.90;;;;;;;;;;4106114;29;20122;-95
2023/07/04 13:31:25;;;;;;;0.70;0.50;;;;;;;;;;4104374;29;20087;-94
2023/07/04 13:33:55;;;;;;;0.70;0.70;;;;;;;;;;4100500;29;20051;-96
2023/07/04 13:36:18;;;;;;;0.65;0.65;;;;;;;;;;4106726;29;20050;-95
2023/07/04 13:38:41;;;;;;;0.85;0.70;;;;;;;;;;4097177;29;20115;-95
2023/07/04 13:41:07;;;;;;;0.70;0.70;;;;;;;;;;4101684;29;20094;-95
2023/07/04 13:43:27;;;;;;;0.90;0.70;;;;;;;;;;4098355;29;20050;-96
2023/07/04 13:45:51;;;;;;;0.70;0.68;;;;;;;;;;4103033;29;20094;-95
2023/07/04 13:48:24;;;;;;;1.88;0.70;;;;;;;;;;4090095;29;20135;-95
2023/07/04 13:50:45;;;;;;;1.23;1.13;;;;;;;;;;4099846;29;20050;-95
2023/07/04 13:53:08;;;;;;;1.50;0.70;;;;;;;;;;4153466;28;20086;-96
2023/07/04 13:55:32;;;;;;;0.70;0.70;;;;;;;;;;4190599;28;20052;-95
2023/07/04 13:57:55;;;;;;;1.40;0.70;;;;;;;;;;4201688;28;20143;-94
2023/07/04 14:00:15;;;;;;;2.08;0.70;;;;;;;;;;4206699;28;20067;-94
2023/07/04 14:02:44;;;;;;;0.88;0.75;;;;;;;;;;4210345;28;20047;-95
2023/07/04 14:05:07;;;;;;;0.65;0.60;;;;;;;;;;4205367;28;20112;-94
2023/07/04 14:07:30;;;;;;;4.10;0.50;;;;;;;;;;4192258;28;20048;-92
2023/07/04 14:09:51;;;;;;;3.13;0.80;;;;;;;;;;4204271;28;20051;-94
2023/07/04 14:12:11;;;;;;;0.80;0.57;;;;;;;;;;4190184;28;20098;-93
2023/07/04 14:14:58;;;;;;;0.70;0.70;;;;;;;;;;4197282;28;20056;-94
2023/07/04 14:17:22;;;;;;;0.90;0.70;;;;;;;;;;4138997;28;20052;-92
2023/07/04 14:19:45;;;;;;;1.95;0.80;;;;;;;;;;4149630;28;20214;-93
2023/07/04 14:22:08;;;;;;;2.45;0.70;;;;;;;;;;4139664;28;20072;-93
2023/07/04 14:25:00;;;;;;;1.50;0.90;;;;;;;;;;4140730;28;20053;-93
2023/07/04 14:27:20;;;;;;;0.70;0.70;;;;;;;;;;4084740;29;20115;-93
2023/07/04 14:29:58;;;;;;;0.80;0.70;;;;;;;;;;4091315;29;20051;-95